sensor_id;sensor_type;location;lat;lon;timestamp;pressure;altitude;pressure_sealevel;temperature;humidity
32109;BME280;18624;50.042;8.436;2023-04-29T00:00:32;100080.75;;;12.47;100.00
32109;BME280;18624;50.042;8.436;2023-04-29T00:02:58;100111.25;;;12.62;100.00
32109;BME280;18624;50.042;8.436;2023-04-29T00:05:26;100077.50;;;12.39;100.00
32109;BME280;18624;50.042;8.436;2023-04-29T00:07:53;100123.00;;;12.62;100.00
32109;BME280;18624;50.042;8.436;2023-04-29T00:10:19;100112.06;;;12.50;100.00
32109;BME280;18624;50.042;8.436;2023-04-29T00:12:45;100128.31;;;12.57;100.00
32109;BME280;18624;50.042;8.436;2023-04-29T00:15:12;100010.16;;;11.78;100.00
32109;BME280;18624;50.042;8.436;2023-04-29T00:17:38;100074.28;;;12.19;100.00
32109;BME280;18624;50.042;8.436;2023-04-29T00:20:05;100026.97;;;11.80;100.00
32109;BME280;18624;50.042;8.436;2023-04-29T00:22:33;100098.09;;;12.35;100.00
32109;BME280;18624;50.042;8.436;2023-04-29T00:24:59;100054.81;;;12.04;100.00
32109;BME280;18624;50.042;8.436;2023-04-29T00:27:26;100107.97;;;12.32;100.00
32109;BME280;18624;50.042;8.436;2023-04-29T00:29:52;100084.63;;;12.15;100.00
32109;BME280;18624;50.042;8.436;2023-04-29T00:32:20;100088.72;;;12.10;100.00
32109;BME280;18624;50.042;8.436;2023-04-29T00:34:47;99966.72;;;11.29;100.00
32109;BME280;18624;50.042;8.436;2023-04-29T00:37:13;100124.81;;;12.34;100.00
32109;BME280;18624;50.042;8.436;2023-04-29T00:39:40;99997.09;;;11.48;100.00
32109;BME280;18624;50.042;8.436;2023-04-29T00:42:07;100045.22;;;11.74;100.00
32109;BME280;18624;50.042;8.436;2023-04-29T00:44:34;100007.31;;;11.47;100.00
32109;BME280;18624;50.042;8.436;2023-04-29T00:47:01;100079.44;;;11.95;100.00
32109;BME280;18624;50.042;8.436;2023-04-29T00:49:27;100101.81;;;12.06;100.00
32109;BME280;18624;50.042;8.436;2023-04-29T00:51:55;100025.06;;;11.55;100.00
32109;BME280;18624;50.042;8.436;2023-04-29T00:54:23;100109.81;;;12.13;100.00
32109;BME280;18624;50.042;8.436;2023-04-29T00:56:49;100138.31;;;12.29;100.00
32109;BME280;18624;50.042;8.436;2023-04-29T00:59:16;100107.94;;;12.10;100.00
32109;BME280;18624;50.042;8.436;2023-04-29T01:01:43;100100.47;;;12.11;100.00
32109;BME280;18624;50.042;8.436;2023-04-29T01:04:11;100097.31;;;12.12;100.00
32109;BME280;18624;50.042;8.436;2023-04-29T01:06:47;100041.69;;;11.74;100.00
32109;BME280;18624;50.042;8.436;2023-04-29T01:10:08;100131.19;;;12.31;100.00
32109;BME280;18624;50.042;8.436;2023-04-29T01:15:26;100071.78;;;11.90;100.00
32109;BME280;18624;50.042;8.436;2023-04-29T01:20:26;100098.19;;;12.09;100.00
32109;BME280;18624;50.042;8.436;2023-04-29T01:22:53;100087.69;;;11.95;100.00
32109;BME280;18624;50.042;8.436;2023-04-29T01:25:20;100127.13;;;12.23;100.00
32109;BME280;18624;50.042;8.436;2023-04-29T01:28:45;100139.00;;;12.20;100.00
32109;BME280;18624;50.042;8.436;2023-04-29T01:31:37;100055.34;;;11.64;100.00
32109;BME280;18624;50.042;8.436;2023-04-29T01:37:20;100106.91;;;11.95;100.00
32109;BME280;18624;50.042;8.436;2023-04-29T01:40:11;100148.16;;;12.17;100.00
32109;BME280;18624;50.042;8.436;2023-04-29T01:43:01;100093.31;;;11.91;100.00
32109;BME280;18624;50.042;8.436;2023-04-29T01:45:33;100132.25;;;12.12;100.00
32109;BME280;18624;50.042;8.436;2023-04-29T01:48:00;100096.16;;;11.88;100.00
32109;BME280;18624;50.042;8.436;2023-04-29T01:50:28;100064.03;;;11.63;100.00
32109;BME280;18624;50.042;8.436;2023-04-29T01:53:02;100134.66;;;12.10;100.00
32109;BME280;18624;50.042;8.436;2023-04-29T01:55:29;100138.16;;;12.10;100.00
32109;BME280;18624;50.042;8.436;2023-04-29T01:58:10;100095.28;;;11.78;100.00
32109;BME280;18624;50.042;8.436;2023-04-29T02:00:46;100099.34;;;11.86;100.00
32109;BME280;18624;50.042;8.436;2023-04-29T02:03:13;100142.22;;;12.19;100.00
32109;BME280;18624;50.042;8.436;2023-04-29T02:05:43;100123.47;;;12.04;100.00
32109;BME280;18624;50.042;8.436;2023-04-29T02:08:11;100140.88;;;12.23;100.00
32109;BME280;18624;50.042;8.436;2023-04-29T02:10:53;100147.47;;;12.26;100.00
32109;BME280;18624;50.042;8.436;2023-04-29T02:13:37;100045.59;;;11.63;100.00
32109;BME280;18624;50.042;8.436;2023-04-29T02:16:12;100069.81;;;11.78;100.00
32109;BME280;18624;50.042;8.436;2023-04-29T02:18:44;100151.53;;;12.34;100.00
32109;BME280;18624;50.042;8.436;2023-04-29T02:21:11;100146.25;;;12.27;100.00
32109;BME280;18624;50.042;8.436;2023-04-29T02:23:37;100153.94;;;12.32;100.00
32109;BME280;18624;50.042;8.436;2023-04-29T02:26:04;100122.03;;;12.12;100.00
32109;BME280;18624;50.042;8.436;2023-04-29T02:28:32;100116.06;;;12.14;100.00
32109;BME280;18624;50.042;8.436;2023-04-29T02:31:00;100072.00;;;11.83;100.00
32109;BME280;18624;50.042;8.436;2023-04-29T02:33:26;100134.94;;;12.25;100.00
32109;BME280;18624;50.042;8.436;2023-04-29T02:35:53;100147.03;;;12.27;100.00
32109;BME280;18624;50.042;8.436;2023-04-29T02:38:21;100124.50;;;12.20;100.00
32109;BME280;18624;50.042;8.436;2023-04-29T02:40:47;100149.09;;;12.36;100.00
32109;BME280;18624;50.042;8.436;2023-04-29T02:43:15;100139.13;;;12.29;100.00
32109;BME280;18624;50.042;8.436;2023-04-29T02:45:43;100107.66;;;12.08;100.00
32109;BME280;18624;50.042;8.436;2023-04-29T02:48:10;100111.59;;;12.07;100.00
32109;BME280;18624;50.042;8.436;2023-04-29T02:50:36;100128.25;;;12.26;100.00
32109;BME280;18624;50.042;8.436;2023-04-29T02:53:03;100162.91;;;12.45;100.00
32109;BME280;18624;50.042;8.436;2023-04-29T02:55:30;100164.13;;;12.44;100.00
32109;BME280;18624;50.042;8.436;2023-04-29T02:58:01;100117.53;;;12.06;100.00
32109;BME280;18624;50.042;8.436;2023-04-29T03:00:29;100064.13;;;11.72;100.00
32109;BME280;18624;50.042;8.436;2023-04-29T03:02:55;100167.44;;;12.39;100.00
32109;BME280;18624;50.042;8.436;2023-04-29T03:05:23;100167.44;;;12.39;100.00
32109;BME280;18624;50.042;8.436;2023-04-29T03:07:49;100137.94;;;12.18;100.00
32109;BME280;18624;50.042;8.436;2023-04-29T03:10:15;100162.38;;;12.37;100.00
32109;BME280;18624;50.042;8.436;2023-04-29T03:12:43;100169.19;;;12.33;100.00
32109;BME280;18624;50.042;8.436;2023-04-29T03:15:10;100162.63;;;12.30;100.00
32109;BME280;18624;50.042;8.436;2023-04-29T03:17:36;100114.41;;;11.95;100.00
32109;BME280;18624;50.042;8.436;2023-04-29T03:20:04;100152.31;;;12.22;100.00
32109;BME280;18624;50.042;8.436;2023-04-29T03:22:30;100165.69;;;12.32;100.00
32109;BME280;18624;50.042;8.436;2023-04-29T03:24:57;100097.06;;;11.85;100.00
32109;BME280;18624;50.042;8.436;2023-04-29T03:27:23;100135.00;;;12.12;100.00
32109;BME280;18624;50.042;8.436;2023-04-29T03:29:50;100143.91;;;12.16;100.00
32109;BME280;18624;50.042;8.436;2023-04-29T03:32:16;100146.63;;;12.16;100.00
32109;BME280;18624;50.042;8.436;2023-04-29T03:34:44;100170.31;;;12.35;100.00
32109;BME280;18624;50.042;8.436;2023-04-29T03:37:40;100085.50;;;11.77;100.00
32109;BME280;18624;50.042;8.436;2023-04-29T03:40:20;100172.59;;;12.37;100.00
32109;BME280;18624;50.042;8.436;2023-04-29T03:42:48;100175.34;;;12.37;100.00
32109;BME280;18624;50.042;8.436;2023-04-29T03:45:15;100131.25;;;12.06;100.00
32109;BME280;18624;50.042;8.436;2023-04-29T03:47:41;100109.31;;;11.93;100.00
32109;BME280;18624;50.042;8.436;2023-04-29T03:50:09;100140.41;;;12.03;100.00
32109;BME280;18624;50.042;8.436;2023-04-29T03:52:36;100187.56;;;12.36;100.00
32109;BME280;18624;50.042;8.436;2023-04-29T03:55:08;100090.69;;;11.75;100.00
32109;BME280;18624;50.042;8.436;2023-04-29T03:57:35;100186.91;;;12.32;100.00
32109;BME280;18624;50.042;8.436;2023-04-29T04:00:02;100128.25;;;11.91;100.00
32109;BME280;18624;50.042;8.436;2023-04-29T04:02:38;100078.09;;;11.52;100.00
32109;BME280;18624;50.042;8.436;2023-04-29T04:05:07;99987.53;;;10.92;100.00
32109;BME280;18624;50.042;8.436;2023-04-29T04:07:33;100190.69;;;12.25;100.00
32109;BME280;18624;50.042;8.436;2023-04-29T04:10:19;100176.44;;;12.05;100.00
32109;BME280;18624;50.042;8.436;2023-04-29T04:12:45;100198.06;;;12.15;100.00
32109;BME280;18624;50.042;8.436;2023-04-29T04:15:15;100135.63;;;11.69;100.00
32109;BME280;18624;50.042;8.436;2023-04-29T04:17:42;100150.19;;;11.78;100.00
32109;BME280;18624;50.042;8.436;2023-04-29T04:20:09;100097.00;;;11.37;100.00
32109;BME280;18624;50.042;8.436;2023-04-29T04:22:36;100113.13;;;11.48;100.00
32109;BME280;18624;50.042;8.436;2023-04-29T04:25:13;100172.63;;;11.89;100.00
32109;BME280;18624;50.042;8.436;2023-04-29T04:27:39;100212.16;;;12.05;100.00
32109;BME280;18624;50.042;8.436;2023-04-29T04:30:11;100135.88;;;11.49;100.00
32109;BME280;18624;50.042;8.436;2023-04-29T04:32:37;100227.09;;;12.04;100.00
32109;BME280;18624;50.042;8.436;2023-04-29T04:35:05;100223.59;;;12.03;100.00
32109;BME280;18624;50.042;8.436;2023-04-29T04:37:33;100103.72;;;11.24;100.00
32109;BME280;18624;50.042;8.436;2023-04-29T04:40:00;100228.09;;;11.97;100.00
32109;BME280;18624;50.042;8.436;2023-04-29T04:42:28;100209.97;;;11.87;100.00
32109;BME280;18624;50.042;8.436;2023-04-29T04:44:56;100225.69;;;11.99;100.00
32109;BME280;18624;50.042;8.436;2023-04-29T04:47:30;100167.25;;;11.60;100.00
32109;BME280;18624;50.042;8.436;2023-04-29T04:50:01;100196.47;;;11.80;100.00
32109;BME280;18624;50.042;8.436;2023-04-29T04:52:29;100128.75;;;11.26;100.00
32109;BME280;18624;50.042;8.436;2023-04-29T04:55:08;100091.19;;;10.97;100.00
32109;BME280;18624;50.042;8.436;2023-04-29T04:57:35;100235.56;;;11.97;100.00
32109;BME280;18624;50.042;8.436;2023-04-29T05:00:02;100207.09;;;11.65;100.00
32109;BME280;18624;50.042;8.436;2023-04-29T05:02:31;100206.13;;;11.72;100.00
32109;BME280;18624;50.042;8.436;2023-04-29T05:04:58;100245.22;;;11.88;100.00
32109;BME280;18624;50.042;8.436;2023-04-29T05:07:27;100121.03;;;10.95;100.00
32109;BME280;18624;50.042;8.436;2023-04-29T05:10:03;100190.94;;;11.29;100.00
32109;BME280;18624;50.042;8.436;2023-04-29T05:12:31;100257.94;;;11.70;100.00
32109;BME280;18624;50.042;8.436;2023-04-29T05:14:59;100232.78;;;11.46;100.00
32109;BME280;18624;50.042;8.436;2023-04-29T05:17:26;100270.59;;;11.67;100.00
32109;BME280;18624;50.042;8.436;2023-04-29T05:19:54;100174.22;;;10.98;100.00
32109;BME280;18624;50.042;8.436;2023-04-29T05:22:21;100172.47;;;10.91;100.00
32109;BME280;18624;50.042;8.436;2023-04-29T05:24:47;100282.13;;;11.62;100.00
32109;BME280;18624;50.042;8.436;2023-04-29T05:27:15;100254.84;;;11.42;100.00
32109;BME280;18624;50.042;8.436;2023-04-29T05:29:42;100263.44;;;11.44;100.00
32109;BME280;18624;50.042;8.436;2023-04-29T05:32:10;100254.28;;;11.34;100.00
32109;BME280;18624;50.042;8.436;2023-04-29T05:34:38;100282.75;;;11.53;100.00
32109;BME280;18624;50.042;8.436;2023-04-29T05:37:05;100300.03;;;11.66;100.00
32109;BME280;18624;50.042;8.436;2023-04-29T05:39:41;100205.94;;;10.99;100.00
32109;BME280;18624;50.042;8.436;2023-04-29T05:42:12;100256.03;;;11.28;100.00
32109;BME280;18624;50.042;8.436;2023-04-29T05:44:43;100267.59;;;11.36;100.00
32109;BME280;18624;50.042;8.436;2023-04-29T05:47:10;100298.16;;;11.63;100.00
32109;BME280;18624;50.042;8.436;2023-04-29T05:49:38;100243.09;;;11.29;100.00
32109;BME280;18624;50.042;8.436;2023-04-29T05:52:04;100206.72;;;10.99;100.00
32109;BME280;18624;50.042;8.436;2023-04-29T05:54:37;100346.75;;;11.92;100.00
32109;BME280;18624;50.042;8.436;2023-04-29T05:57:03;100286.59;;;11.56;100.00
32109;BME280;18624;50.042;8.436;2023-04-29T05:59:31;100290.34;;;11.49;100.00
32109;BME280;18624;50.042;8.436;2023-04-29T06:02:01;100245.59;;;11.23;100.00
32109;BME280;18624;50.042;8.436;2023-04-29T06:04:28;100311.31;;;11.69;100.00
32109;BME280;18624;50.042;8.436;2023-04-29T06:07:01;100351.81;;;11.94;100.00
32109;BME280;18624;50.042;8.436;2023-04-29T06:09:46;100342.25;;;11.85;100.00
32109;BME280;18624;50.042;8.436;2023-04-29T06:12:12;100350.69;;;11.91;100.00
32109;BME280;18624;50.042;8.436;2023-04-29T06:14:41;100331.69;;;11.84;100.00
32109;BME280;18624;50.042;8.436;2023-04-29T06:17:08;100389.84;;;12.21;100.00
32109;BME280;18624;50.042;8.436;2023-04-29T06:19:35;100354.44;;;11.97;100.00
32109;BME280;18624;50.042;8.436;2023-04-29T06:22:01;100309.78;;;11.68;100.00
32109;BME280;18624;50.042;8.436;2023-04-29T06:24:28;100345.78;;;11.99;100.00
32109;BME280;18624;50.042;8.436;2023-04-29T06:26:55;100380.81;;;12.20;100.00
32109;BME280;18624;50.042;8.436;2023-04-29T06:29:23;100361.25;;;12.05;100.00
32109;BME280;18624;50.042;8.436;2023-04-29T06:31:50;100361.59;;;12.07;100.00
32109;BME280;18624;50.042;8.436;2023-04-29T06:34:17;100405.47;;;12.36;100.00
32109;BME280;18624;50.042;8.436;2023-04-29T06:37:03;100412.47;;;12.37;100.00
32109;BME280;18624;50.042;8.436;2023-04-29T06:39:53;100412.06;;;12.39;100.00
32109;BME280;18624;50.042;8.436;2023-04-29T06:42:38;100414.25;;;12.44;100.00
32109;BME280;18624;50.042;8.436;2023-04-29T06:45:37;100384.34;;;12.21;100.00
32109;BME280;18624;50.042;8.436;2023-04-29T06:48:15;100388.53;;;12.25;100.00
32109;BME280;18624;50.042;8.436;2023-04-29T06:50:54;100322.44;;;11.78;100.00
32109;BME280;18624;50.042;8.436;2023-04-29T06:53:21;100425.78;;;12.64;100.00
32109;BME280;18624;50.042;8.436;2023-04-29T06:55:48;100400.94;;;12.55;100.00
32109;BME280;18624;50.042;8.436;2023-04-29T06:58:15;100427.66;;;12.80;100.00
32109;BME280;18624;50.042;8.436;2023-04-29T07:00:46;100427.97;;;12.82;100.00
32109;BME280;18624;50.042;8.436;2023-04-29T07:03:14;100427.84;;;12.86;100.00
32109;BME280;18624;50.042;8.436;2023-04-29T07:05:41;100394.88;;;12.60;100.00
32109;BME280;18624;50.042;8.436;2023-04-29T07:08:11;100287.31;;;11.85;100.00
32109;BME280;18624;50.042;8.436;2023-04-29T07:10:39;100432.03;;;12.78;100.00
32109;BME280;18624;50.042;8.436;2023-04-29T07:13:06;100426.13;;;12.66;100.00
32109;BME280;18624;50.042;8.436;2023-04-29T07:15:34;100447.88;;;12.74;100.00
32109;BME280;18624;50.042;8.436;2023-04-29T07:18:03;100397.97;;;12.37;100.00
32109;BME280;18624;50.042;8.436;2023-04-29T07:20:30;100419.31;;;12.46;100.00
32109;BME280;18624;50.042;8.436;2023-04-29T07:22:58;100456.03;;;12.64;100.00
32109;BME280;18624;50.042;8.436;2023-04-29T07:25:25;100462.09;;;12.59;100.00
32109;BME280;18624;50.042;8.436;2023-04-29T07:27:54;100412.59;;;12.21;100.00
32109;BME280;18624;50.042;8.436;2023-04-29T07:30:23;100421.16;;;12.23;100.00
32109;BME280;18624;50.042;8.436;2023-04-29T07:32:50;100399.16;;;12.10;100.00
32109;BME280;18624;50.042;8.436;2023-04-29T07:35:17;100425.78;;;12.26;100.00
32109;BME280;18624;50.042;8.436;2023-04-29T07:37:43;100435.03;;;12.32;100.00
32109;BME280;18624;50.042;8.436;2023-04-29T07:40:11;100362.75;;;11.81;100.00
32109;BME280;18624;50.042;8.436;2023-04-29T07:42:38;100430.63;;;12.22;100.00
32109;BME280;18624;50.042;8.436;2023-04-29T07:45:05;100377.34;;;11.78;100.00
32109;BME280;18624;50.042;8.436;2023-04-29T07:47:32;100413.66;;;12.11;100.00
32109;BME280;18624;50.042;8.436;2023-04-29T07:49:59;100484.53;;;12.58;100.00
32109;BME280;18624;50.042;8.436;2023-04-29T07:52:26;100446.13;;;12.29;100.00
32109;BME280;18624;50.042;8.436;2023-04-29T07:54:52;100355.69;;;11.67;100.00
32109;BME280;18624;50.042;8.436;2023-04-29T07:57:21;100357.44;;;11.61;100.00
32109;BME280;18624;50.042;8.436;2023-04-29T07:59:54;100381.31;;;11.77;100.00
32109;BME280;18624;50.042;8.436;2023-04-29T08:02:20;100458.66;;;12.30;100.00
32109;BME280;18624;50.042;8.436;2023-04-29T08:04:48;100488.78;;;12.46;100.00
32109;BME280;18624;50.042;8.436;2023-04-29T08:07:16;100508.06;;;12.59;100.00
32109;BME280;18624;50.042;8.436;2023-04-29T08:09:43;100477.38;;;12.35;100.00
32109;BME280;18624;50.042;8.436;2023-04-29T08:12:09;100456.56;;;12.21;100.00
32109;BME280;18624;50.042;8.436;2023-04-29T08:14:38;100524.91;;;12.61;100.00
32109;BME280;18624;50.042;8.436;2023-04-29T08:17:05;100472.06;;;12.28;100.00
32109;BME280;18624;50.042;8.436;2023-04-29T08:19:32;100505.50;;;12.52;100.00
32109;BME280;18624;50.042;8.436;2023-04-29T08:21:59;100523.25;;;12.63;100.00
32109;BME280;18624;50.042;8.436;2023-04-29T08:24:26;100532.25;;;12.64;100.00
32109;BME280;18624;50.042;8.436;2023-04-29T08:26:54;100500.25;;;12.45;100.00
32109;BME280;18624;50.042;8.436;2023-04-29T08:29:20;100537.66;;;12.67;100.00
32109;BME280;18624;50.042;8.436;2023-04-29T08:31:47;100507.19;;;12.49;100.00
32109;BME280;18624;50.042;8.436;2023-04-29T08:34:13;100415.63;;;11.85;100.00
32109;BME280;18624;50.042;8.436;2023-04-29T08:36:40;100538.44;;;12.68;100.00
32109;BME280;18624;50.042;8.436;2023-04-29T08:39:06;100456.88;;;12.10;100.00
32109;BME280;18624;50.042;8.436;2023-04-29T08:41:33;100476.69;;;12.31;100.00
32109;BME280;18624;50.042;8.436;2023-04-29T08:43:59;100515.06;;;12.47;100.00
32109;BME280;18624;50.042;8.436;2023-04-29T08:46:26;100505.97;;;12.50;100.00
32109;BME280;18624;50.042;8.436;2023-04-29T08:48:53;100421.44;;;11.87;100.00
32109;BME280;18624;50.042;8.436;2023-04-29T08:51:21;100476.47;;;12.25;100.00
32109;BME280;18624;50.042;8.436;2023-04-29T08:53:48;100459.75;;;12.07;100.00
32109;BME280;18624;50.042;8.436;2023-04-29T08:56:15;100539.97;;;12.56;100.00
32109;BME280;18624;50.042;8.436;2023-04-29T08:58:49;100510.13;;;12.42;100.00
32109;BME280;18624;50.042;8.436;2023-04-29T09:01:20;100504.94;;;12.31;100.00
32109;BME280;18624;50.042;8.436;2023-04-29T09:03:53;100557.22;;;12.70;100.00
32109;BME280;18624;50.042;8.436;2023-04-29T09:06:22;100535.44;;;12.50;100.00
32109;BME280;18624;50.042;8.436;2023-04-29T09:08:49;100532.56;;;12.40;100.00
32109;BME280;18624;50.042;8.436;2023-04-29T09:11:15;100561.41;;;12.61;100.00
32109;BME280;18624;50.042;8.436;2023-04-29T09:13:42;100565.81;;;12.59;100.00
32109;BME280;18624;50.042;8.436;2023-04-29T09:16:12;100544.13;;;12.48;100.00
32109;BME280;18624;50.042;8.436;2023-04-29T09:18:49;100565.91;;;12.55;100.00
32109;BME280;18624;50.042;8.436;2023-04-29T09:21:18;100563.16;;;12.55;100.00
32109;BME280;18624;50.042;8.436;2023-04-29T09:23:55;100571.66;;;12.61;100.00
32109;BME280;18624;50.042;8.436;2023-04-29T09:26:22;100495.97;;;12.02;100.00
32109;BME280;18624;50.042;8.436;2023-04-29T09:29:12;100565.69;;;12.62;100.00
32109;BME280;18624;50.042;8.436;2023-04-29T09:31:39;100574.84;;;12.72;100.00
32109;BME280;18624;50.042;8.436;2023-04-29T09:34:07;100572.41;;;12.74;100.00
32109;BME280;18624;50.042;8.436;2023-04-29T09:36:49;100505.03;;;12.28;100.00
32109;BME280;18624;50.042;8.436;2023-04-29T09:39:17;100574.97;;;12.81;100.00
32109;BME280;18624;50.042;8.436;2023-04-29T09:44:27;100585.88;;;12.85;100.00
32109;BME280;18624;50.042;8.436;2023-04-29T09:47:01;100581.13;;;12.85;100.00
32109;BME280;18624;50.042;8.436;2023-04-29T09:49:29;100574.84;;;12.85;100.00
32109;BME280;18624;50.042;8.436;2023-04-29T09:51:58;100587.75;;;12.88;100.00
32109;BME280;18624;50.042;8.436;2023-04-29T09:54:27;100580.34;;;12.85;100.00
32109;BME280;18624;50.042;8.436;2023-04-29T09:56:56;100571.44;;;12.81;100.00
32109;BME280;18624;50.042;8.436;2023-04-29T09:59:23;100430.63;;;11.80;100.00
32109;BME280;18624;50.042;8.436;2023-04-29T10:01:57;100537.53;;;12.58;100.00
32109;BME280;18624;50.042;8.436;2023-04-29T10:04:25;100594.22;;;12.94;100.00
32109;BME280;18624;50.042;8.436;2023-04-29T10:06:54;100528.50;;;12.45;98.21
32109;BME280;18624;50.042;8.436;2023-04-29T10:09:21;100584.63;;;12.73;97.50
32109;BME280;18624;50.042;8.436;2023-04-29T10:11:51;100579.56;;;12.72;99.32
32109;BME280;18624;50.042;8.436;2023-04-29T10:14:22;100598.94;;;12.81;100.00
32109;BME280;18624;50.042;8.436;2023-04-29T10:17:15;100527.13;;;12.24;100.00
32109;BME280;18624;50.042;8.436;2023-04-29T10:19:58;100525.69;;;12.20;100.00
32109;BME280;18624;50.042;8.436;2023-04-29T10:22:41;100543.66;;;12.37;100.00
32109;BME280;18624;50.042;8.436;2023-04-29T10:25:10;100531.75;;;12.27;100.00
32109;BME280;18624;50.042;8.436;2023-04-29T10:27:38;100363.88;;;11.12;98.95
32109;BME280;18624;50.042;8.436;2023-04-29T10:30:08;100511.94;;;12.07;100.00
32109;BME280;18624;50.042;8.436;2023-04-29T10:32:39;100542.31;;;12.29;98.55
32109;BME280;18624;50.042;8.436;2023-04-29T10:35:17;100555.41;;;12.37;98.17
32109;BME280;18624;50.042;8.436;2023-04-29T10:37:46;100488.13;;;11.87;100.00
32109;BME280;18624;50.042;8.436;2023-04-29T10:40:20;100609.81;;;12.72;100.00
32109;BME280;18624;50.042;8.436;2023-04-29T10:42:49;100609.38;;;12.73;100.00
32109;BME280;18624;50.042;8.436;2023-04-29T10:53:16;100527.25;;;12.21;100.00
32109;BME280;18624;50.042;8.436;2023-04-29T10:55:52;100559.41;;;12.49;100.00
32109;BME280;18624;50.042;8.436;2023-04-29T10:58:40;100616.69;;;12.92;100.00
32109;BME280;18624;50.042;8.436;2023-04-29T11:01:07;100566.78;;;12.65;99.49
32109;BME280;18624;50.042;8.436;2023-04-29T11:03:53;100548.34;;;12.65;96.19
32109;BME280;18624;50.042;8.436;2023-04-29T11:06:22;100612.94;;;13.12;98.18
32109;BME280;18624;50.042;8.436;2023-04-29T11:09:04;100603.69;;;13.18;96.26
32109;BME280;18624;50.042;8.436;2023-04-29T11:11:43;100546.03;;;12.89;96.23
32109;BME280;18624;50.042;8.436;2023-04-29T11:14:12;100582.88;;;13.17;95.66
32109;BME280;18624;50.042;8.436;2023-04-29T11:16:46;100569.78;;;13.22;93.74
32109;BME280;18624;50.042;8.436;2023-04-29T11:19:15;100504.78;;;12.89;92.55
32109;BME280;18624;50.042;8.436;2023-04-29T11:21:44;100587.94;;;13.57;92.66
32109;BME280;18624;50.042;8.436;2023-04-29T11:24:12;100485.59;;;12.99;90.85
32109;BME280;18624;50.042;8.436;2023-04-29T11:26:41;100597.03;;;13.80;87.59
32109;BME280;18624;50.042;8.436;2023-04-29T11:29:09;100563.44;;;13.72;89.33
32109;BME280;18624;50.042;8.436;2023-04-29T11:31:36;100515.91;;;13.46;92.58
32109;BME280;18624;50.042;8.436;2023-04-29T11:34:04;100592.28;;;14.15;91.80
32109;BME280;18624;50.042;8.436;2023-04-29T11:36:33;100562.31;;;14.04;88.52
32109;BME280;18624;50.042;8.436;2023-04-29T11:39:01;100457.59;;;13.38;87.16
32109;BME280;18624;50.042;8.436;2023-04-29T11:41:29;100591.53;;;14.36;82.05
32109;BME280;18624;50.042;8.436;2023-04-29T11:43:58;100592.13;;;14.40;83.41
32109;BME280;18624;50.042;8.436;2023-04-29T11:46:25;100562.47;;;14.23;85.52
32109;BME280;18624;50.042;8.436;2023-04-29T11:48:56;100523.44;;;14.02;84.22
32109;BME280;18624;50.042;8.436;2023-04-29T11:51:23;100536.06;;;14.12;85.14
32109;BME280;18624;50.042;8.436;2023-04-29T11:53:50;100500.16;;;13.81;84.35
32109;BME280;18624;50.042;8.436;2023-04-29T11:56:20;100595.00;;;14.50;82.35
32109;BME280;18624;50.042;8.436;2023-04-29T11:58:48;100577.28;;;14.38;83.86
32109;BME280;18624;50.042;8.436;2023-04-29T12:01:14;100595.13;;;14.46;84.41
32109;BME280;18624;50.042;8.436;2023-04-29T12:03:42;100552.16;;;14.14;83.46
32109;BME280;18624;50.042;8.436;2023-04-29T12:06:09;100588.63;;;14.40;83.31
32109;BME280;18624;50.042;8.436;2023-04-29T12:08:36;100461.84;;;13.52;83.25
32109;BME280;18624;50.042;8.436;2023-04-29T12:11:02;100471.19;;;13.55;82.92
32109;BME280;18624;50.042;8.436;2023-04-29T12:13:29;100562.53;;;14.10;81.05
32109;BME280;18624;50.042;8.436;2023-04-29T12:15:56;100556.03;;;14.04;84.58
32109;BME280;18624;50.042;8.436;2023-04-29T12:18:24;100526.47;;;13.82;86.64
32109;BME280;18624;50.042;8.436;2023-04-29T12:20:52;100540.34;;;13.91;88.44
32109;BME280;18624;50.042;8.436;2023-04-29T12:23:24;100584.38;;;14.26;88.66
32109;BME280;18624;50.042;8.436;2023-04-29T12:25:58;100584.25;;;14.30;88.34
32109;BME280;18624;50.042;8.436;2023-04-29T12:28:26;100521.19;;;13.88;86.11
32109;BME280;18624;50.042;8.436;2023-04-29T12:30:53;100555.94;;;14.07;85.65
32109;BME280;18624;50.042;8.436;2023-04-29T12:33:21;100516.59;;;13.72;82.97
32109;BME280;18624;50.042;8.436;2023-04-29T12:35:49;100574.34;;;14.10;83.88
32109;BME280;18624;50.042;8.436;2023-04-29T12:38:20;100564.00;;;14.02;84.62
32109;BME280;18624;50.042;8.436;2023-04-29T12:40:47;100500.34;;;13.65;85.57
32109;BME280;18624;50.042;8.436;2023-04-29T12:43:14;100568.06;;;14.10;85.07
32109;BME280;18624;50.042;8.436;2023-04-29T12:45:41;100528.81;;;13.84;84.58
32109;BME280;18624;50.042;8.436;2023-04-29T12:48:08;100556.69;;;14.08;83.25
32109;BME280;18624;50.042;8.436;2023-04-29T12:50:51;100580.41;;;14.27;82.55
32109;BME280;18624;50.042;8.436;2023-04-29T12:53:18;100564.78;;;14.24;81.93
32109;BME280;18624;50.042;8.436;2023-04-29T12:55:44;100546.38;;;14.21;85.17
32109;BME280;18624;50.042;8.436;2023-04-29T12:58:11;100514.28;;;14.05;85.17
32109;BME280;18624;50.042;8.436;2023-04-29T13:00:38;100523.16;;;14.09;83.76
32109;BME280;18624;50.042;8.436;2023-04-29T13:03:05;100510.81;;;14.14;79.09
32109;BME280;18624;50.042;8.436;2023-04-29T13:05:32;100553.94;;;14.52;82.13
32109;BME280;18624;50.042;8.436;2023-04-29T13:07:59;100553.19;;;14.51;81.90
32109;BME280;18624;50.042;8.436;2023-04-29T13:10:26;100570.28;;;14.68;80.55
32109;BME280;18624;50.042;8.436;2023-04-29T13:12:53;100592.72;;;14.79;78.99
32109;BME280;18624;50.042;8.436;2023-04-29T13:15:20;100564.56;;;14.62;81.85